sensor_id;sensor_type;location;lat;lon;timestamp;pressure;altitude;pressure_sealevel;temperature;humidity
42003;BME280;27693;50.506;30.832;2023-05-09T00:00:49;100953.99;;;7.17;43.97
42003;BME280;27693;50.506;30.832;2023-05-09T00:01:52;100955.77;;;7.13;43.97
42003;BME280;27693;50.506;30.832;2023-05-09T00:02:54;100949.73;;;7.11;44.05
42003;BME280;27693;50.506;30.832;2023-05-09T00:03:58;100949.73;;;7.11;44.05
42003;BME280;27693;50.506;30.832;2023-05-09T00:05:00;100954.05;;;7.12;44.11
42003;BME280;27693;50.506;30.832;2023-05-09T00:06:06;100951.38;;;7.18;44.49
42003;BME280;27693;50.506;30.832;2023-05-09T00:07:08;100951.33;;;7.23;44.50
42003;BME280;27693;50.506;30.832;2023-05-09T00:08:12;100950.38;;;7.29;44.00
42003;BME280;27693;50.506;30.832;2023-05-09T00:09:14;100947.87;;;7.23;44.05
42003;BME280;27693;50.506;30.832;2023-05-09T00:10:17;100955.78;;;7.10;44.30
42003;BME280;27693;50.506;30.832;2023-05-09T00:11:19;100950.58;;;7.12;44.33
42003;BME280;27693;50.506;30.832;2023-05-09T00:12:22;100944.48;;;7.17;44.63
42003;BME280;27693;50.506;30.832;2023-05-09T00:13:25;100950.48;;;7.21;44.00
42003;BME280;27693;50.506;30.832;2023-05-09T00:14:27;100947.05;;;7.19;44.06
42003;BME280;27693;50.506;30.832;2023-05-09T00:15:30;100950.45;;;7.23;43.98
42003;BME280;27693;50.506;30.832;2023-05-09T00:16:34;100951.33;;;7.22;44.10
42003;BME280;27693;50.506;30.832;2023-05-09T00:17:38;100946.15;;;7.22;44.04
42003;BME280;27693;50.506;30.832;2023-05-09T00:18:42;100944.41;;;7.24;44.09
42003;BME280;27693;50.506;30.832;2023-05-09T00:19:45;100938.38;;;7.22;44.02
42003;BME280;27693;50.506;30.832;2023-05-09T00:20:47;100949.66;;;7.17;44.18
42003;BME280;27693;50.506;30.832;2023-05-09T00:21:50;100951.45;;;7.12;44.25
42003;BME280;27693;50.506;30.832;2023-05-09T00:22:53;100943.64;;;7.15;44.89
42003;BME280;27693;50.506;30.832;2023-05-09T00:23:56;100949.69;;;7.14;44.21
42003;BME280;27693;50.506;30.832;2023-05-09T00:24:58;100948.80;;;7.18;44.51
42003;BME280;27693;50.506;30.832;2023-05-09T00:26:01;100960.94;;;7.13;44.86
42003;BME280;27693;50.506;30.832;2023-05-09T00:27:04;100951.41;;;7.15;44.48
42003;BME280;27693;50.506;30.832;2023-05-09T00:28:07;100947.10;;;7.16;44.82
42003;BME280;27693;50.506;30.832;2023-05-09T00:29:09;100947.92;;;7.19;44.91
42003;BME280;27693;50.506;30.832;2023-05-09T00:30:11;100956.56;;;7.18;44.62
42003;BME280;27693;50.506;30.832;2023-05-09T00:31:14;100954.81;;;7.21;44.75
42003;BME280;27693;50.506;30.832;2023-05-09T00:32:17;100953.13;;;7.16;44.54
42003;BME280;27693;50.506;30.832;2023-05-09T00:33:20;100956.58;;;7.15;44.55
42003;BME280;27693;50.506;30.832;2023-05-09T00:34:22;100947.94;;;7.16;44.76
42003;BME280;27693;50.506;30.832;2023-05-09T00:35:25;100957.45;;;7.16;44.61
42003;BME280;27693;50.506;30.832;2023-05-09T00:36:27;100955.73;;;7.15;45.05
42003;BME280;27693;50.506;30.832;2023-05-09T00:37:30;100958.30;;;7.16;44.98
42003;BME280;27693;50.506;30.832;2023-05-09T00:38:32;100954.86;;;7.14;44.90
42003;BME280;27693;50.506;30.832;2023-05-09T00:39:34;100957.41;;;7.19;45.03
42003;BME280;27693;50.506;30.832;2023-05-09T00:40:37;100958.22;;;7.23;45.72
42003;BME280;27693;50.506;30.832;2023-05-09T00:41:39;100957.34;;;7.24;44.75
42003;BME280;27693;50.506;30.832;2023-05-09T00:42:41;100961.75;;;7.15;44.80
42003;BME280;27693;50.506;30.832;2023-05-09T00:43:43;100958.30;;;7.16;44.95
42003;BME280;27693;50.506;30.832;2023-05-09T00:44:47;100947.92;;;7.19;45.09
42003;BME280;27693;50.506;30.832;2023-05-09T00:45:49;100949.58;;;7.24;45.54
42003;BME280;27693;50.506;30.832;2023-05-09T00:46:52;100949.58;;;7.24;45.53
42003;BME280;27693;50.506;30.832;2023-05-09T00:47:56;100948.71;;;7.25;44.90
42003;BME280;27693;50.506;30.832;2023-05-09T00:48:58;100959.05;;;7.26;45.10
42003;BME280;27693;50.506;30.832;2023-05-09T00:50:01;100955.61;;;7.26;44.66
42003;BME280;27693;50.506;30.832;2023-05-09T00:51:04;100949.58;;;7.24;44.97
42003;BME280;27693;50.506;30.832;2023-05-09T00:52:07;100953.89;;;7.25;45.51
42003;BME280;27693;50.506;30.832;2023-05-09T00:53:10;100953.89;;;7.25;45.51
42003;BME280;27693;50.506;30.832;2023-05-09T00:54:13;100959.05;;;7.26;45.48
42003;BME280;27693;50.506;30.832;2023-05-09T00:55:17;100954.69;;;7.30;45.73
42003;BME280;27693;50.506;30.832;2023-05-09T00:56:19;100959.02;;;7.29;45.20
42003;BME280;27693;50.506;30.832;2023-05-09T00:57:22;100947.92;;;7.19;44.87
42003;BME280;27693;50.506;30.832;2023-05-09T00:58:25;100956.56;;;7.18;45.24
42003;BME280;27693;50.506;30.832;2023-05-09T00:59:27;100949.64;;;7.21;45.18
42003;BME280;27693;50.506;30.832;2023-05-09T01:00:30;100951.30;;;7.25;46.21
42003;BME280;27693;50.506;30.832;2023-05-09T01:01:33;100953.09;;;7.19;45.08
42003;BME280;27693;50.506;30.832;2023-05-09T01:02:36;100952.27;;;7.14;45.02
42003;BME280;27693;50.506;30.832;2023-05-09T01:03:38;100949.66;;;7.17;45.38
42003;BME280;27693;50.506;30.832;2023-05-09T01:04:43;100952.22;;;7.19;45.28
42003;BME280;27693;50.506;30.832;2023-05-09T01:07:24;100960.02;;;7.17;45.41
42003;BME280;27693;50.506;30.832;2023-05-09T01:08:36;100966.04;;;7.19;45.77
42003;BME280;27693;50.506;30.832;2023-05-09T01:09:44;100959.99;;;7.21;45.75
42003;BME280;27693;50.506;30.832;2023-05-09T01:14:51;100951.64;;;6.94;46.29
42003;BME280;27693;50.506;30.832;2023-05-09T01:18:39;100957.60;;;7.03;45.98
42003;BME280;27693;50.506;30.832;2023-05-09T01:21:12;100956.73;;;7.03;45.94
42003;BME280;27693;50.506;30.832;2023-05-09T01:22:15;100963.69;;;6.98;46.11
42003;BME280;27693;50.506;30.832;2023-05-09T01:28:31;100954.98;;;7.05;46.02
42003;BME280;27693;50.506;30.832;2023-05-09T01:29:43;100960.25;;;6.96;46.07
42003;BME280;27693;50.506;30.832;2023-05-09T01:30:50;100957.64;;;6.97;46.40
42003;BME280;27693;50.506;30.832;2023-05-09T01:31:54;100951.59;;;6.98;46.44
42003;BME280;27693;50.506;30.832;2023-05-09T01:32:59;100954.19;;;7.00;46.97
42003;BME280;27693;50.506;30.832;2023-05-09T01:34:04;100948.17;;;6.98;46.94
42003;BME280;27693;50.506;30.832;2023-05-09T01:35:11;100959.38;;;6.97;46.84
42003;BME280;27693;50.506;30.832;2023-05-09T01:36:16;100956.00;;;6.92;46.63
42003;BME280;27693;50.506;30.832;2023-05-09T01:37:23;100957.73;;;6.90;46.44
42003;BME280;27693;50.506;30.832;2023-05-09T01:38:27;100953.43;;;6.88;46.52
42003;BME280;27693;50.506;30.832;2023-05-09T01:39:33;100954.23;;;6.94;46.70
42003;BME280;27693;50.506;30.832;2023-05-09T01:40:37;100962.84;;;6.96;47.00
42003;BME280;27693;50.506;30.832;2023-05-09T01:41:41;100963.72;;;6.96;46.75
42003;BME280;27693;50.506;30.832;2023-05-09T01:43:19;100952.49;;;6.96;46.46
42003;BME280;27693;50.506;30.832;2023-05-09T01:43:57;100963.78;;;6.88;46.52
42003;BME280;27693;50.506;30.832;2023-05-09T01:45:03;100953.48;;;6.85;47.13
42003;BME280;27693;50.506;30.832;2023-05-09T01:46:08;100953.48;;;6.85;47.01
42003;BME280;27693;50.506;30.832;2023-05-09T01:47:11;100948.33;;;6.82;46.94
42003;BME280;27693;50.506;30.832;2023-05-09T01:48:14;100955.22;;;6.83;46.97
42003;BME280;27693;50.506;30.832;2023-05-09T01:49:19;100953.50;;;6.82;46.68
42003;BME280;27693;50.506;30.832;2023-05-09T01:50:22;100952.72;;;6.76;47.07
42003;BME280;27693;50.506;30.832;2023-05-09T01:51:26;100952.72;;;6.74;47.03
42003;BME280;27693;50.506;30.832;2023-05-09T01:52:32;100955.34;;;6.71;46.88
42003;BME280;27693;50.506;30.832;2023-05-09T01:53:35;100951.90;;;6.72;47.04
42003;BME280;27693;50.506;30.832;2023-05-09T01:54:39;100953.63;;;6.70;47.04
42003;BME280;27693;50.506;30.832;2023-05-09T01:55:42;100953.65;;;6.67;47.21
42003;BME280;27693;50.506;30.832;2023-05-09T01:56:47;100952.80;;;6.66;47.18
42003;BME280;27693;50.506;30.832;2023-05-09T01:57:52;100951.95;;;6.64;47.49
42003;BME280;27693;50.506;30.832;2023-05-09T01:58:55;100955.43;;;6.62;47.31
42003;BME280;27693;50.506;30.832;2023-05-09T01:59:59;100956.32;;;6.59;47.98
42003;BME280;27693;50.506;30.832;2023-05-09T02:01:03;100952.81;;;6.63;48.12
42003;BME280;27693;50.506;30.832;2023-05-09T02:02:06;100951.08;;;6.65;47.72
42003;BME280;27693;50.506;30.832;2023-05-09T02:03:09;100957.98;;;6.63;47.38
42003;BME280;27693;50.506;30.832;2023-05-09T02:04:15;100949.39;;;6.63;47.40
42003;BME280;27693;50.506;30.832;2023-05-09T02:05:20;100955.41;;;6.65;47.31
42003;BME280;27693;50.506;30.832;2023-05-09T02:06:24;100955.41;;;6.65;47.27
42003;BME280;27693;50.506;30.832;2023-05-09T02:07:29;100952.04;;;6.57;47.22
42003;BME280;27693;50.506;30.832;2023-05-09T02:08:33;100957.16;;;6.60;47.90
42003;BME280;27693;50.506;30.832;2023-05-09T02:09:36;100955.48;;;6.55;47.42
42003;BME280;27693;50.506;30.832;2023-05-09T02:10:38;100961.50;;;6.56;47.59
42003;BME280;27693;50.506;30.832;2023-05-09T02:11:41;100964.09;;;6.58;47.80
42003;BME280;27693;50.506;30.832;2023-05-09T02:12:44;100955.47;;;6.59;47.33
42003;BME280;27693;50.506;30.832;2023-05-09T02:13:48;100954.59;;;6.58;47.49
42003;BME280;27693;50.506;30.832;2023-05-09T02:14:51;100954.65;;;6.55;47.62
42003;BME280;27693;50.506;30.832;2023-05-09T02:15:54;100959.00;;;6.48;47.47
42003;BME280;27693;50.506;30.832;2023-05-09T02:16:58;100957.22;;;6.53;47.74
42003;BME280;27693;50.506;30.832;2023-05-09T02:18:01;100956.33;;;6.56;48.01
42003;BME280;27693;50.506;30.832;2023-05-09T02:19:04;100953.77;;;6.54;47.54
42003;BME280;27693;50.506;30.832;2023-05-09T02:20:09;100959.85;;;6.50;47.58
42003;BME280;27693;50.506;30.832;2023-05-09T02:21:12;100953.83;;;6.48;47.98
42003;BME280;27693;50.506;30.832;2023-05-09T02:22:14;100952.11;;;6.47;47.91
42003;BME280;27693;50.506;30.832;2023-05-09T02:23:18;100952.98;;;6.48;47.64
42003;BME280;27693;50.506;30.832;2023-05-09T02:24:20;100956.39;;;6.50;47.78
42003;BME280;27693;50.506;30.832;2023-05-09T02:25:24;100952.91;;;6.55;48.47
42003;BME280;27693;50.506;30.832;2023-05-09T02:26:28;100957.20;;;6.57;47.65
42003;BME280;27693;50.506;30.832;2023-05-09T02:27:33;100956.30;;;6.62;47.81
42003;BME280;27693;50.506;30.832;2023-05-09T02:28:37;100952.80;;;6.66;48.69
42003;BME280;27693;50.506;30.832;2023-05-09T02:29:45;100961.43;;;6.65;47.63
42003;BME280;27693;50.506;30.832;2023-05-09T02:30:49;100958.83;;;6.68;48.07
42003;BME280;27693;50.506;30.832;2023-05-09T02:31:53;100951.90;;;6.72;47.44
42003;BME280;27693;50.506;30.832;2023-05-09T02:33:00;100957.89;;;6.74;47.64
42003;BME280;27693;50.506;30.832;2023-05-09T02:34:03;100955.30;;;6.74;47.40
42003;BME280;27693;50.506;30.832;2023-05-09T02:35:08;100960.45;;;6.77;48.07
42003;BME280;27693;50.506;30.832;2023-05-09T02:36:13;100960.41;;;6.80;47.42
42003;BME280;27693;50.506;30.832;2023-05-09T02:37:15;100956.95;;;6.81;47.39
42003;BME280;27693;50.506;30.832;2023-05-09T02:38:19;100957.82;;;6.80;47.70
42003;BME280;27693;50.506;30.832;2023-05-09T02:39:23;100960.52;;;6.69;47.40
42003;BME280;27693;50.506;30.832;2023-05-09T02:40:26;100957.05;;;6.74;47.75
42003;BME280;27693;50.506;30.832;2023-05-09T02:41:29;100957.02;;;6.75;47.61
42003;BME280;27693;50.506;30.832;2023-05-09T02:42:32;100958.73;;;6.76;48.07
42003;BME280;27693;50.506;30.832;2023-05-09T02:43:35;100958.77;;;6.75;48.18
42003;BME280;27693;50.506;30.832;2023-05-09T02:44:37;100960.47;;;6.74;47.58
42003;BME280;27693;50.506;30.832;2023-05-09T02:45:40;100958.73;;;6.76;47.94
42003;BME280;27693;50.506;30.832;2023-05-09T02:46:43;100959.63;;;6.74;47.77
42003;BME280;27693;50.506;30.832;2023-05-09T02:47:45;100959.63;;;6.74;47.94
42003;BME280;27693;50.506;30.832;2023-05-09T02:48:47;100963.09;;;6.73;48.09
42003;BME280;27693;50.506;30.832;2023-05-09T02:49:50;100963.89;;;6.78;47.74
42003;BME280;27693;50.506;30.832;2023-05-09T02:50:52;100963.84;;;6.82;47.67
42003;BME280;27693;50.506;30.832;2023-05-09T02:51:55;100966.41;;;6.85;47.84
42003;BME280;27693;50.506;30.832;2023-05-09T02:53:00;100961.24;;;6.85;47.33
42003;BME280;27693;50.506;30.832;2023-05-09T02:54:02;100961.28;;;6.81;47.35
42003;BME280;27693;50.506;30.832;2023-05-09T02:55:06;100960.52;;;6.71;47.48
42003;BME280;27693;50.506;30.832;2023-05-09T02:56:11;100969.95;;;6.75;48.04
42003;BME280;27693;50.506;30.832;2023-05-09T02:57:13;100961.34;;;6.75;48.20
42003;BME280;27693;50.506;30.832;2023-05-09T02:58:15;100966.48;;;6.79;48.15
42003;BME280;27693;50.506;30.832;2023-05-09T02:59:18;100963.89;;;6.78;48.09
42003;BME280;27693;50.506;30.832;2023-05-09T03:00:21;100962.20;;;6.75;48.06
42003;BME280;27693;50.506;30.832;2023-05-09T03:01:24;100962.20;;;6.75;48.06
42003;BME280;27693;50.506;30.832;2023-05-09T03:02:27;100970.73;;;6.83;48.08
42003;BME280;27693;50.506;30.832;2023-05-09T03:03:30;100971.58;;;6.84;47.69
42003;BME280;27693;50.506;30.832;2023-05-09T03:04:37;100975.09;;;6.80;47.76
42003;BME280;27693;50.506;30.832;2023-05-09T03:05:39;100965.56;;;6.83;48.08
42003;BME280;27693;50.506;30.832;2023-05-09T03:06:42;100974.19;;;6.82;47.80
42003;BME280;27693;50.506;30.832;2023-05-09T03:07:44;100965.63;;;6.77;47.86
42003;BME280;27693;50.506;30.832;2023-05-09T03:08:46;100966.47;;;6.78;48.05
42003;BME280;27693;50.506;30.832;2023-05-09T03:09:49;100972.54;;;6.75;48.27
42003;BME280;27693;50.506;30.832;2023-05-09T03:10:52;100964.78;;;6.75;48.12
42003;BME280;27693;50.506;30.832;2023-05-09T03:11:54;100972.54;;;6.75;48.44
42003;BME280;27693;50.506;30.832;2023-05-09T03:12:57;100975.98;;;6.77;48.89
42003;BME280;27693;50.506;30.832;2023-05-09T03:14:02;100970.81;;;6.74;48.45
42003;BME280;27693;50.506;30.832;2023-05-09T03:15:08;100971.73;;;6.70;48.12
42003;BME280;27693;50.506;30.832;2023-05-09T03:16:13;100974.34;;;6.67;48.29
42003;BME280;27693;50.506;30.832;2023-05-09T03:17:16;100981.29;;;6.62;48.60
42003;BME280;27693;50.506;30.832;2023-05-09T03:18:20;100986.52;;;6.55;48.81
42003;BME280;27693;50.506;30.832;2023-05-09T03:19:22;100981.33;;;6.59;48.85
42003;BME280;27693;50.506;30.832;2023-05-09T03:20:25;100982.20;;;6.58;48.77
42003;BME280;27693;50.506;30.832;2023-05-09T03:21:29;100976.19;;;6.52;48.95
42003;BME280;27693;50.506;30.832;2023-05-09T03:22:33;100982.30;;;6.44;49.18
42003;BME280;27693;50.506;30.832;2023-05-09T03:23:38;100978.78;;;6.54;49.16
42003;BME280;27693;50.506;30.832;2023-05-09T03:24:40;100978.78;;;6.54;49.16
42003;BME280;27693;50.506;30.832;2023-05-09T03:25:42;100984.77;;;6.59;48.85
42003;BME280;27693;50.506;30.832;2023-05-09T03:26:45;100985.63;;;6.58;49.30
42003;BME280;27693;50.506;30.832;2023-05-09T03:27:48;100989.05;;;6.62;49.11
42003;BME280;27693;50.506;30.832;2023-05-09T03:28:50;100982.12;;;6.65;49.46
42003;BME280;27693;50.506;30.832;2023-05-09T03:29:53;100987.29;;;6.65;49.06
42003;BME280;27693;50.506;30.832;2023-05-09T03:30:55;100989.85;;;6.67;48.70
42003;BME280;27693;50.506;30.832;2023-05-09T03:32:00;100995.07;;;6.64;48.81
42003;BME280;27693;50.506;30.832;2023-05-09T03:33:02;100990.68;;;6.70;49.45
42003;BME280;27693;50.506;30.832;2023-05-09T03:34:05;100988.97;;;6.69;48.88
42003;BME280;27693;50.506;30.832;2023-05-09T03:35:08;100987.38;;;6.54;48.97
42003;BME280;27693;50.506;30.832;2023-05-09T03:36:10;100986.46;;;6.62;49.30
42003;BME280;27693;50.506;30.832;2023-05-09T03:37:14;100984.68;;;6.67;49.21
42003;BME280;27693;50.506;30.832;2023-05-09T03:38:17;100983.00;;;6.63;48.84
42003;BME280;27693;50.506;30.832;2023-05-09T03:39:20;100991.67;;;6.59;49.15
42003;BME280;27693;50.506;30.832;2023-05-09T03:40:24;100979.55;;;6.64;49.27
42003;BME280;27693;50.506;30.832;2023-05-09T03:41:29;100979.55;;;6.64;49.27
42003;BME280;27693;50.506;30.832;2023-05-09T03:42:32;100994.95;;;6.76;49.04
42003;BME280;27693;50.506;30.832;2023-05-09T03:43:35;101002.64;;;6.82;49.12
42003;BME280;27693;50.506;30.832;2023-05-09T03:44:38;100997.45;;;6.85;48.97
42003;BME280;27693;50.506;30.832;2023-05-09T03:45:42;100996.56;;;6.86;48.55
42003;BME280;27693;50.506;30.832;2023-05-09T03:46:45;100991.50;;;6.77;48.90
42003;BME280;27693;50.506;30.832;2023-05-09T03:47:49;100998.33;;;6.84;49.10
42003;BME280;27693;50.506;30.832;2023-05-09T03:48:51;100996.53;;;6.93;48.93
42003;BME280;27693;50.506;30.832;2023-05-09T03:49:53;100996.48;;;6.96;48.48
42003;BME280;27693;50.506;30.832;2023-05-09T03:50:57;100998.20;;;6.97;48.32
42003;BME280;27693;50.506;30.832;2023-05-09T03:52:02;100992.95;;;7.03;48.54
42003;BME280;27693;50.506;30.832;2023-05-09T03:53:05;101004.95;;;7.10;48.92
42003;BME280;27693;50.506;30.832;2023-05-09T03:54:07;100992.86;;;7.12;48.13
42003;BME280;27693;50.506;30.832;2023-05-09T03:55:10;100994.58;;;7.13;48.00
42003;BME280;27693;50.506;30.832;2023-05-09T03:56:13;100997.17;;;7.13;48.18
42003;BME280;27693;50.506;30.832;2023-05-09T03:57:18;101002.30;;;7.16;48.11
42003;BME280;27693;50.506;30.832;2023-05-09T03:58:21;100998.81;;;7.21;48.65
42003;BME280;27693;50.506;30.832;2023-05-09T03:59:23;101001.41;;;7.21;48.12
42003;BME280;27693;50.506;30.832;2023-05-09T04:00:26;101000.50;;;7.22;48.21
42003;BME280;27693;50.506;30.832;2023-05-09T04:01:30;100997.14;;;7.15;48.11
42003;BME280;27693;50.506;30.832;2023-05-09T04:02:33;100997.14;;;7.15;48.11
42003;BME280;27693;50.506;30.832;2023-05-09T04:03:35;101005.70;;;7.20;49.19
42003;BME280;27693;50.506;30.832;2023-05-09T04:04:39;100999.64;;;7.23;48.69
42003;BME280;27693;50.506;30.832;2023-05-09T04:05:42;100994.44;;;7.26;48.22
42003;BME280;27693;50.506;30.832;2023-05-09T04:06:46;100999.56;;;7.30;48.25
42003;BME280;27693;50.506;30.832;2023-05-09T04:07:50;100993.47;;;7.34;47.95
42003;BME280;27693;50.506;30.832;2023-05-09T04:08:53;100995.08;;;7.43;48.75
42003;BME280;27693;50.506;30.832;2023-05-09T04:09:55;100995.03;;;7.48;48.06
42003;BME280;27693;50.506;30.832;2023-05-09T04:10:57;100991.53;;;7.50;47.88
42003;BME280;27693;50.506;30.832;2023-05-09T04:12:00;100994.20;;;7.44;47.66
42003;BME280;27693;50.506;30.832;2023-05-09T04:13:03;101002.81;;;7.45;47.91
42003;BME280;27693;50.506;30.832;2023-05-09T04:14:05;100997.72;;;7.40;47.95
42003;BME280;27693;50.506;30.832;2023-05-09T04:15:10;100992.48;;;7.43;47.87
42003;BME280;27693;50.506;30.832;2023-05-09T04:16:13;100995.84;;;7.51;47.62
42003;BME280;27693;50.506;30.832;2023-05-09T04:17:15;100990.59;;;7.58;47.46
42003;BME280;27693;50.506;30.832;2023-05-09T04:18:18;100998.38;;;7.56;47.33
42003;BME280;27693;50.506;30.832;2023-05-09T04:19:20;101010.41;;;7.62;46.92
42003;BME280;27693;50.506;30.832;2023-05-09T04:20:22;101003.42;;;7.65;46.78
42003;BME280;27693;50.506;30.832;2023-05-09T04:21:25;100997.34;;;7.70;46.62
42003;BME280;27693;50.506;30.832;2023-05-09T04:22:29;100999.03;;;7.72;46.71
42003;BME280;27693;50.506;30.832;2023-05-09T04:23:32;100999.84;;;7.76;46.72
42003;BME280;27693;50.506;30.832;2023-05-09T04:24:34;101011.00;;;7.82;46.47
42003;BME280;27693;50.506;30.832;2023-05-09T04:25:36;101005.81;;;7.82;46.49
42003;BME280;27693;50.506;30.832;2023-05-09T04:26:39;101004.83;;;7.90;46.64
42003;BME280;27693;50.506;30.832;2023-05-09T04:27:43;101002.98;;;7.99;46.22
42003;BME280;27693;50.506;30.832;2023-05-09T04:28:46;100999.52;;;7.99;46.20
42003;BME280;27693;50.506;30.832;2023-05-09T04:29:49;100999.52;;;7.99;46.20
42003;BME280;27693;50.506;30.832;2023-05-09T04:30:52;101006.58;;;7.89;46.16
42003;BME280;27693;50.506;30.832;2023-05-09T04:31:55;101007.36;;;7.96;46.18
42003;BME280;27693;50.506;30.832;2023-05-09T04:33:00;101006.60;;;7.86;46.59
42003;BME280;27693;50.506;30.832;2023-05-09T04:34:03;101008.23;;;7.93;46.37
42003;BME280;27693;50.506;30.832;2023-05-09T04:35:07;101008.14;;;8.01;46.04
42003;BME280;27693;50.506;30.832;2023-05-09T04:36:12;101013.27;;;8.04;45.92
42003;BME280;27693;50.506;30.832;2023-05-09T04:37:17;101010.58;;;8.10;45.79
42003;BME280;27693;50.506;30.832;2023-05-09T04:38:19;101010.55;;;8.13;45.96
42003;BME280;27693;50.506;30.832;2023-05-09T04:39:23;101013.88;;;8.22;45.86
42003;BME280;27693;50.506;30.832;2023-05-09T04:40:28;101016.31;;;8.31;45.69
42003;BME280;27693;50.506;30.832;2023-05-09T04:41:32;101010.22;;;8.35;45.39
42003;BME280;27693;50.506;30.832;2023-05-09T04:42:35;101012.84;;;8.34;45.57
42003;BME280;27693;50.506;30.832;2023-05-09T04:43:38;101013.69;;;8.34;45.60
42003;BME280;27693;50.506;30.832;2023-05-09T04:44:41;101014.39;;;8.47;45.67
42003;BME280;27693;50.506;30.832;2023-05-09T04:45:44;101014.39;;;8.47;45.67
42003;BME280;27693;50.506;30.832;2023-05-09T04:46:47;101011.77;;;8.45;45.91
42003;BME280;27693;50.506;30.832;2023-05-09T04:47:51;101016.08;;;8.50;45.91
42003;BME280;27693;50.506;30.832;2023-05-09T04:48:54;101020.31;;;8.54;45.63
42003;BME280;27693;50.506;30.832;2023-05-09T04:49:56;101020.17;;;8.63;45.51
42003;BME280;27693;50.506;30.832;2023-05-09T04:51:01;101015.75;;;8.68;45.25
42003;BME280;27693;50.506;30.832;2023-05-09T04:52:04;101018.20;;;8.76;44.81
42003;BME280;27693;50.506;30.832;2023-05-09T04:53:07;101013.05;;;8.74;44.81
42003;BME280;27693;50.506;30.832;2023-05-09T04:54:10;101021.56;;;8.83;44.81
42003;BME280;27693;50.506;30.832;2023-05-09T04:55:13;101015.42;;;8.88;44.62
42003;BME280;27693;50.506;30.832;2023-05-09T04:56:18;101019.58;;;8.97;44.32
42003;BME280;27693;50.506;30.832;2023-05-09T04:57:21;101011.72;;;9.00;44.23
42003;BME280;27693;50.506;30.832;2023-05-09T04:58:25;101016.75;;;9.09;44.05
42003;BME280;27693;50.506;30.832;2023-05-09T04:59:29;101019.30;;;9.13;44.14
42003;BME280;27693;50.506;30.832;2023-05-09T05:00:31;101012.39;;;9.11;43.98
42003;BME280;27693;50.506;30.832;2023-05-09T05:01:35;101014.88;;;9.18;43.78
42003;BME280;27693;50.506;30.832;2023-05-09T05:02:37;101020.78;;;9.26;43.41
42003;BME280;27693;50.506;30.832;2023-05-09T05:03:40;101017.22;;;9.30;43.44
42003;BME280;27693;50.506;30.832;2023-05-09T05:04:42;101017.17;;;9.33;43.34
42003;BME280;27693;50.506;30.832;2023-05-09T05:05:44;101015.38;;;9.35;43.10
42003;BME280;27693;50.506;30.832;2023-05-09T05:06:48;101015.33;;;9.38;43.05
42003;BME280;27693;50.506;30.832;2023-05-09T05:07:50;101017.80;;;9.45;42.84
42003;BME280;27693;50.506;30.832;2023-05-09T05:08:54;101017.63;;;9.54;42.95
42003;BME280;27693;50.506;30.832;2023-05-09T05:09:57;101022.83;;;9.52;42.62
42003;BME280;27693;50.506;30.832;2023-05-09T05:10:59;101027.10;;;9.55;42.63
42003;BME280;27693;50.506;30.832;2023-05-09T05:12:02;101022.83;;;9.52;42.32
42003;BME280;27693;50.506;30.832;2023-05-09T05:13:09;101020.89;;;9.64;42.62
42003;BME280;27693;50.506;30.832;2023-05-09T05:14:13;101016.40;;;9.70;42.43
42003;BME280;27693;50.506;30.832;2023-05-09T05:15:16;101018.16;;;9.68;42.26
42003;BME280;27693;50.506;30.832;2023-05-09T05:16:21;101011.16;;;9.72;42.22
42003;BME280;27693;50.506;30.832;2023-05-09T05:17:24;101012.78;;;9.78;41.95
42003;BME280;27693;50.506;30.832;2023-05-09T05:18:27;101015.20;;;9.85;41.98
42003;BME280;27693;50.506;30.832;2023-05-09T05:19:29;101018.48;;;9.94;41.58
42003;BME280;27693;50.506;30.832;2023-05-09T05:20:33;101010.59;;;9.98;41.37
42003;BME280;27693;50.506;30.832;2023-05-09T05:21:35;101021.03;;;9.97;41.30
42003;BME280;27693;50.506;30.832;2023-05-09T05:22:38;101021.03;;;9.97;41.30
42003;BME280;27693;50.506;30.832;2023-05-09T05:23:40;101014.02;;;10.00;41.01
42003;BME280;27693;50.506;30.832;2023-05-09T05:24:42;101020.15;;;9.98;41.18
42003;BME280;27693;50.506;30.832;2023-05-09T05:25:46;101010.41;;;10.06;41.23
42003;BME280;27693;50.506;30.832;2023-05-09T05:26:49;101018.09;;;10.12;40.91
42003;BME280;27693;50.506;30.832;2023-05-09T05:27:52;101015.45;;;10.14;40.87
42003;BME280;27693;50.506;30.832;2023-05-09T05:28:56;101013.59;;;10.19;40.91
42003;BME280;27693;50.506;30.832;2023-05-09T05:29:59;101015.45;;;10.14;41.06
42003;BME280;27693;50.506;30.832;2023-05-09T05:31:02;101019.08;;;10.06;41.36
42003;BME280;27693;50.506;30.832;2023-05-09T05:32:04;101020.56;;;10.17;41.16
42003;BME280;27693;50.506;30.832;2023-05-09T05:33:07;101017.66;;;10.31;41.06
42003;BME280;27693;50.506;30.832;2023-05-09T05:34:10;101022.81;;;10.32;40.91
42003;BME280;27693;50.506;30.832;2023-05-09T05:35:13;101014.05;;;10.38;41.10
42003;BME280;27693;50.506;30.832;2023-05-09T05:36:17;101020.09;;;10.38;40.95
42003;BME280;27693;50.506;30.832;2023-05-09T05:37:19;101013.94;;;10.43;40.86
42003;BME280;27693;50.506;30.832;2023-05-09T05:38:22;101020.87;;;10.42;40.35
42003;BME280;27693;50.506;30.832;2023-05-09T05:39:26;101018.16;;;10.47;40.27
42003;BME280;27693;50.506;30.832;2023-05-09T05:40:29;101024.97;;;10.52;40.10
42003;BME280;27693;50.506;30.832;2023-05-09T05:41:32;101026.48;;;10.61;40.33
42003;BME280;27693;50.506;30.832;2023-05-09T05:42:36;101024.98;;;10.51;40.07
42003;BME280;27693;50.506;30.832;2023-05-09T05:43:38;101019.72;;;10.54;39.90
42003;BME280;27693;50.506;30.832;2023-05-09T05:44:41;101022.38;;;10.51;39.79
42003;BME280;27693;50.506;30.832;2023-05-09T05:45:43;101009.16;;;10.60;40.06
42003;BME280;27693;50.506;30.832;2023-05-09T05:46:48;101015.85;;;10.70;40.16